createdAt,value
2018-01-14T00:00:22.329Z,0.60
2018-01-14T00:02:52.616Z,0.60
2018-01-14T00:05:24.552Z,0.60
2018-01-14T00:08:03.575Z,0.50
2018-01-14T00:10:39.103Z,0.50
2018-01-14T00:13:09.819Z,0.60
2018-01-14T00:15:41.102Z,0.60
2018-01-14T00:18:14.423Z,0.60
2018-01-14T00:20:43.462Z,0.60
2018-01-14T00:23:12.610Z,0.50
2018-01-14T00:25:47.620Z,0.50
2018-01-14T00:28:18.726Z,0.50
2018-01-14T00:30:48.999Z,0.50
2018-01-14T00:33:23.002Z,0.50
2018-01-14T00:35:54.391Z,0.50
2018-01-14T00:38:23.888Z,0.50
2018-01-14T00:40:54.803Z,0.50
2018-01-14T00:43:24.418Z,0.40
2018-01-14T00:45:53.278Z,0.40
2018-01-14T00:48:22.761Z,0.40
2018-01-14T00:50:51.978Z,0.50
2018-01-14T00:53:21.815Z,0.50
2018-01-14T00:55:50.812Z,0.60
2018-01-14T00:58:19.997Z,0.60
2018-01-14T01:00:49.955Z,0.60
2018-01-14T01:03:20.732Z,0.50
2018-01-14T01:08:27.898Z,0.40
2018-01-14T01:10:58.007Z,0.40
2018-01-14T01:13:27.314Z,0.40
2018-01-14T01:15:56.282Z,0.50
2018-01-14T01:18:26.240Z,0.40
2018-01-14T01:20:55.492Z,0.50
2018-01-14T01:23:24.795Z,0.50
2018-01-14T01:25:55.858Z,0.50
2018-01-14T01:33:34.255Z,0.40
2018-01-14T01:36:04.513Z,0.40
2018-01-14T01:38:36.355Z,0.50
2018-01-14T01:41:08.446Z,0.50
2018-01-14T01:43:41.823Z,0.50
2018-01-14T01:46:13.608Z,0.50
2018-01-14T01:48:43.520Z,0.50
2018-01-14T01:51:13.506Z,0.50
2018-01-14T01:53:43.419Z,0.50
2018-01-14T01:56:14.455Z,0.50
2018-01-14T01:58:47.653Z,0.50
2018-01-14T02:01:17.171Z,0.50
2018-01-14T02:06:22.203Z,0.40
2018-01-14T02:08:52.845Z,0.40
2018-01-14T02:11:21.698Z,0.40
2018-01-14T02:13:51.145Z,0.40
2018-01-14T02:16:20.745Z,0.40
2018-01-14T02:18:51.536Z,0.30
2018-01-14T02:21:20.688Z,0.30
2018-01-14T02:26:29.790Z,0.30
2018-01-14T02:29:00.883Z,0.40
2018-01-14T02:34:11.410Z,0.30
2018-01-14T02:36:44.263Z,0.30
2018-01-14T02:39:15.482Z,0.30
2018-01-14T02:41:45.985Z,0.30
2018-01-14T02:44:18.322Z,0.40
2018-01-14T03:00:43.864Z,0.30
2018-01-14T03:03:14.156Z,0.30
2018-01-14T03:05:46.220Z,0.30
2018-01-14T03:13:48.716Z,0.30
2018-01-14T03:16:24.354Z,0.30
2018-01-14T03:18:57.006Z,0.20
2018-01-14T03:21:30.786Z,0.20
2018-01-14T03:26:41.353Z,0.30
2018-01-14T03:34:31.420Z,0.40
2018-01-14T03:37:02.836Z,0.30
2018-01-14T03:39:32.565Z,0.30
2018-01-14T03:42:02.180Z,0.30
2018-01-14T03:44:36.291Z,0.30
2018-01-14T03:47:09.660Z,0.30
2018-01-14T03:52:20.258Z,0.20
2018-01-14T03:57:25.676Z,0.30
2018-01-14T03:59:56.247Z,0.30
2018-01-14T05:03:10.628Z,0.10
2018-01-14T05:05:39.251Z,0.20
2018-01-14T05:08:09.942Z,0.10
2018-01-14T05:10:38.801Z,0.10
2018-01-14T05:13:07.713Z,0.20
2018-01-14T05:15:36.678Z,0.20
2018-01-14T05:18:06.290Z,0.10
2018-01-14T05:20:35.061Z,0.10
2018-01-14T05:23:04.006Z,0.10
2018-01-14T05:25:32.859Z,0.10
2018-01-14T05:28:01.704Z,0.20
2018-01-14T05:30:31.366Z,0.20
2018-01-14T05:33:00.262Z,0.20
2018-01-14T05:35:29.046Z,0.20
2018-01-14T05:37:57.830Z,0.20
2018-01-14T05:40:26.655Z,0.20
2018-01-14T05:42:55.393Z,0.20
2018-01-14T05:45:24.947Z,0.10
2018-01-14T05:47:53.733Z,0.10
2018-01-14T05:50:22.562Z,0.10
2018-01-14T05:52:51.377Z,0.10
2018-01-14T05:55:20.733Z,0.10
2018-01-14T05:57:49.213Z,0.10
2018-01-14T06:00:18.025Z,0.20
2018-01-14T06:02:46.841Z,0.20
2018-01-14T06:05:16.441Z,0.10
2018-01-14T06:07:45.074Z,0.10
2018-01-14T06:10:13.733Z,0.10
2018-01-14T06:12:43.555Z,0.10
2018-01-14T06:15:13.373Z,0.10
2018-01-14T06:17:42.122Z,0.20
2018-01-14T06:20:10.978Z,0.20
2018-01-14T06:22:40.366Z,0.20
2018-01-14T06:25:09.202Z,0.20
2018-01-14T06:27:38.001Z,0.10
2018-01-14T06:30:07.629Z,0.10
2018-01-14T06:32:36.447Z,0.10
2018-01-14T06:35:05.246Z,0.10
2018-01-14T06:37:34.041Z,0.10
2018-01-14T06:40:02.888Z,0.10
2018-01-14T06:42:31.334Z,0.10
2018-01-14T06:45:01.138Z,0.10
2018-01-14T06:47:29.894Z,0.10
2018-01-14T06:49:58.723Z,0.10
2018-01-14T06:52:27.393Z,0.20
2018-01-14T06:54:56.253Z,0.10
2018-01-14T06:57:25.042Z,0.10
2018-01-14T06:59:53.973Z,0.10
2018-01-14T07:02:25.786Z,0.10
2018-01-14T07:04:56.284Z,0.10
2018-01-14T07:07:29.484Z,0.10
2018-01-14T07:09:58.834Z,0.00
2018-01-14T07:12:28.414Z,0.10
2018-01-14T07:14:57.314Z,0.10
2018-01-14T07:17:25.916Z,0.10
2018-01-14T07:19:54.931Z,0.20
2018-01-14T07:22:23.491Z,0.20
2018-01-14T07:24:52.753Z,0.30
2018-01-14T07:27:23.005Z,0.30
2018-01-14T07:29:51.822Z,0.20
2018-01-14T07:32:21.326Z,0.20
2018-01-14T07:34:51.000Z,0.20
2018-01-14T07:37:19.996Z,0.20
2018-01-14T07:39:49.894Z,0.30
2018-01-14T07:42:19.750Z,0.30
2018-01-14T07:44:48.862Z,0.30
2018-01-14T07:47:18.470Z,0.20
2018-01-14T07:49:49.805Z,0.20
2018-01-14T07:52:19.646Z,0.20
2018-01-14T07:54:49.619Z,0.30
2018-01-14T07:57:19.088Z,0.30
2018-01-14T07:59:48.731Z,0.40
2018-01-14T08:02:17.857Z,0.40
2018-01-14T08:11:18.846Z,0.30
2018-01-14T08:13:49.537Z,0.40
2018-01-14T08:16:18.340Z,0.30
2018-01-14T08:18:47.138Z,0.40
2018-01-14T08:21:16.324Z,0.40
2018-01-14T08:23:45.142Z,0.40
2018-01-14T08:26:14.793Z,0.40
2018-01-14T08:28:44.385Z,0.50
2018-01-14T08:31:13.390Z,0.50
2018-01-14T08:33:42.340Z,0.50
2018-01-14T08:36:11.217Z,0.50
2018-01-14T08:38:40.020Z,0.60
2018-01-14T08:41:08.794Z,0.60
2018-01-14T08:43:37.706Z,0.50
2018-01-14T08:46:06.506Z,0.60
2018-01-14T08:48:35.262Z,0.60
2018-01-14T08:51:04.088Z,0.60
2018-01-14T08:53:32.948Z,0.60
2018-01-14T08:56:01.805Z,0.60
2018-01-14T08:58:30.657Z,0.50
2018-01-14T09:00:59.473Z,0.40
2018-01-14T09:06:01.538Z,0.50
2018-01-14T09:08:30.510Z,0.50
2018-01-14T09:10:59.498Z,0.50
2018-01-14T09:13:28.266Z,0.60
2018-01-14T09:15:57.881Z,0.50
2018-01-14T09:18:26.646Z,0.50
2018-01-14T09:20:55.539Z,0.50
2018-01-14T09:23:24.401Z,0.50
2018-01-14T09:25:53.204Z,0.60
2018-01-14T09:28:22.246Z,0.60
2018-01-14T09:31:07.981Z,0.60
2018-01-14T09:33:36.939Z,0.70
2018-01-14T09:36:05.649Z,0.80
2018-01-14T09:38:34.579Z,0.60
2018-01-14T09:41:03.450Z,0.50
2018-01-14T09:43:32.213Z,0.60
2018-01-14T09:46:00.998Z,0.70
2018-01-14T09:48:29.881Z,0.70
2018-01-14T09:50:58.673Z,0.80
2018-01-14T09:53:27.285Z,0.80
2018-01-14T09:55:56.071Z,0.90
2018-01-14T09:58:24.869Z,0.80
2018-01-14T10:00:53.632Z,0.80
2018-01-14T10:03:22.416Z,0.80
2018-01-14T10:05:51.179Z,0.80
2018-01-14T10:08:20.731Z,0.80
2018-01-14T10:10:49.837Z,0.80
2018-01-14T10:13:19.933Z,0.60
2018-01-14T10:15:48.931Z,0.60
2018-01-14T10:18:17.733Z,0.70
2018-01-14T10:20:46.473Z,0.70
2018-01-14T10:23:17.216Z,0.50
2018-01-14T10:25:46.805Z,0.40
2018-01-14T10:28:16.386Z,0.30
2018-01-14T10:30:46.003Z,0.30
2018-01-14T10:33:14.758Z,0.40
2018-01-14T10:35:43.561Z,0.40
2018-01-14T10:38:12.501Z,0.40
2018-01-14T10:40:41.221Z,0.50
2018-01-14T10:43:11.618Z,0.80
2018-01-14T10:45:40.370Z,0.80
2018-01-14T10:48:09.082Z,0.90
2018-01-14T10:50:37.893Z,0.90
2018-01-14T10:53:06.633Z,1.20
2018-01-14T10:55:35.405Z,1.30
2018-01-14T10:58:04.174Z,1.30
2018-01-14T11:00:37.886Z,1.40
2018-01-14T11:03:06.593Z,1.60
2018-01-14T11:05:35.374Z,1.60
2018-01-14T11:08:04.097Z,1.70
2018-01-14T11:10:32.822Z,1.60
2018-01-14T11:13:01.534Z,1.70
2018-01-14T11:15:30.270Z,1.80
2018-01-14T11:17:59.017Z,1.70
2018-01-14T11:20:27.711Z,1.50
2018-01-14T11:22:56.467Z,1.40
2018-01-14T11:25:25.960Z,1.20
2018-01-14T11:27:54.325Z,1.10
2018-01-14T11:30:23.061Z,1.10
2018-01-14T11:32:51.757Z,1.10
2018-01-14T11:35:20.181Z,1.20
2018-01-14T11:37:48.890Z,1.10
2018-01-14T11:40:18.563Z,0.90
2018-01-14T11:42:47.333Z,0.90
2018-01-14T11:45:16.089Z,0.60
2018-01-14T11:47:45.613Z,0.50
2018-01-14T11:50:14.322Z,0.50
2018-01-14T11:52:43.105Z,0.40
2018-01-14T11:55:11.855Z,0.40
2018-01-14T11:57:41.386Z,0.30
2018-01-14T12:00:10.119Z,0.30
2018-01-14T12:02:38.853Z,0.40
2018-01-14T12:05:07.606Z,0.40
2018-01-14T12:07:36.286Z,0.40
2018-01-14T12:10:04.969Z,0.40
2018-01-14T12:12:33.706Z,0.30
2018-01-14T12:15:02.423Z,0.30
2018-01-14T12:17:31.189Z,0.30
2018-01-14T12:19:59.922Z,0.30
2018-01-14T12:22:28.660Z,0.50
2018-01-14T12:24:57.411Z,0.40
2018-01-14T12:27:26.149Z,0.40
2018-01-14T12:29:54.682Z,0.30
2018-01-14T12:32:22.699Z,0.20
2018-01-14T12:34:54.609Z,0.30
2018-01-14T12:37:23.306Z,0.30
2018-01-14T12:39:52.021Z,0.50
2018-01-14T12:42:20.800Z,0.60
2018-01-14T12:44:50.264Z,0.60
2018-01-14T12:47:18.928Z,0.60
2018-01-14T12:49:47.824Z,0.60
2018-01-14T12:52:16.508Z,0.70
2018-01-14T12:54:45.224Z,0.60
2018-01-14T12:57:13.916Z,0.30
2018-01-14T12:59:42.622Z,0.30
2018-01-14T13:02:11.475Z,0.20
2018-01-14T13:04:40.196Z,0.10
2018-01-14T13:07:08.853Z,0.20
2018-01-14T13:09:37.537Z,0.20
2018-01-14T13:12:06.217Z,0.20
2018-01-14T13:14:34.933Z,0.20
2018-01-14T13:17:03.609Z,0.20
2018-01-14T13:19:32.309Z,0.30
2018-01-14T13:22:01.199Z,0.30
2018-01-14T13:24:29.661Z,0.30
2018-01-14T13:26:58.321Z,0.30
2018-01-14T13:29:26.956Z,0.40
2018-01-14T13:31:55.622Z,0.50
2018-01-14T13:34:24.268Z,0.50
2018-01-14T13:36:52.896Z,0.50
2018-01-14T13:39:21.581Z,0.30
2018-01-14T13:41:50.241Z,0.20
2018-01-14T13:44:18.877Z,0.10
2018-01-14T13:46:47.616Z,0.20
2018-01-14T13:49:16.245Z,0.20
2018-01-14T13:51:45.074Z,0.30
2018-01-14T13:54:14.549Z,0.30
2018-01-14T13:56:43.187Z,0.30
2018-01-14T13:59:11.832Z,0.40
2018-01-14T14:01:40.477Z,0.30
2018-01-14T14:04:09.114Z,0.20
2018-01-14T14:06:38.529Z,0.20
2018-01-14T14:09:07.177Z,0.20
2018-01-14T14:11:35.814Z,0.30
2018-01-14T14:14:04.461Z,0.20
2018-01-14T14:16:33.155Z,0.20
2018-01-14T14:19:01.964Z,0.10
2018-01-14T14:21:30.610Z,0.10
2018-01-14T14:23:59.276Z,0.00
2018-01-14T14:26:27.936Z,-0.10
2018-01-14T14:28:56.589Z,0.00
2018-01-14T14:31:26.037Z,0.00
2018-01-14T14:33:54.697Z,0.00
2018-01-14T14:36:23.337Z,-0.10
2018-01-14T14:38:52.018Z,0.10
2018-01-14T14:41:20.652Z,0.10
2018-01-14T14:43:50.064Z,0.20
2018-01-14T14:46:18.709Z,0.20
2018-01-14T14:48:47.357Z,0.20
2018-01-14T14:51:15.993Z,0.20
2018-01-14T14:53:44.649Z,0.20
2018-01-14T14:56:13.310Z,0.20
2018-01-14T14:58:42.000Z,0.10
2018-01-14T15:01:10.843Z,-0.10
2018-01-14T15:03:39.504Z,-0.20
2018-01-14T15:06:08.161Z,-0.30
2018-01-14T15:08:36.830Z,-0.30
2018-01-14T15:11:05.478Z,-0.60
2018-01-14T15:13:34.124Z,-0.60
2018-01-14T15:16:02.541Z,-0.60
2018-01-14T15:18:31.186Z,-0.70
2018-01-14T15:20:59.885Z,-0.80
2018-01-14T15:23:28.634Z,-0.90
2018-01-14T15:25:57.302Z,-0.90
2018-01-14T15:28:26.713Z,-0.90
2018-01-14T15:30:56.198Z,-1.00
2018-01-14T15:33:24.907Z,-1.00
2018-01-14T15:35:54.333Z,-1.00
2018-01-14T15:38:23.047Z,-1.00
2018-01-14T15:40:51.704Z,-1.10
2018-01-14T15:43:20.349Z,-1.10
2018-01-14T15:45:49.022Z,-1.10
2018-01-14T15:48:17.694Z,-1.10
2018-01-14T15:50:46.341Z,-1.10
2018-01-14T15:53:15.029Z,-1.10
2018-01-14T15:55:43.690Z,-1.10
2018-01-14T15:58:12.328Z,-1.10
2018-01-14T16:00:41.015Z,-1.10
2018-01-14T16:03:09.673Z,-1.20
2018-01-14T16:05:38.325Z,-1.10
2018-01-14T16:08:07.021Z,-1.20
2018-01-14T16:10:36.449Z,-1.20
2018-01-14T16:13:05.864Z,-1.20
2018-01-14T16:15:34.544Z,-1.20
2018-01-14T16:18:03.236Z,-1.20
2018-01-14T16:20:31.966Z,-1.20
2018-01-14T16:23:00.661Z,-1.20
2018-01-14T16:25:29.334Z,-1.20
2018-01-14T16:27:58.005Z,-1.20
2018-01-14T16:30:26.698Z,-1.20
2018-01-14T16:32:55.348Z,-1.20
2018-01-14T16:35:24.008Z,-1.10
2018-01-14T16:37:52.697Z,-1.20
2018-01-14T16:40:21.499Z,-1.30
2018-01-14T16:42:50.209Z,-1.30
2018-01-14T16:45:18.889Z,-1.30
2018-01-14T16:47:47.555Z,-1.30
2018-01-14T16:50:16.267Z,-1.30
2018-01-14T16:52:44.933Z,-1.30
2018-01-14T16:55:14.350Z,-1.40
2018-01-14T16:57:43.026Z,-1.40
2018-01-14T17:00:12.443Z,-1.40
2018-01-14T17:02:41.092Z,-1.40
2018-01-14T17:05:10.113Z,-1.40
2018-01-14T17:07:38.866Z,-1.30
2018-01-14T17:10:07.563Z,-1.30
2018-01-14T17:12:36.383Z,-1.20
2018-01-14T17:15:05.798Z,-1.30
2018-01-14T17:17:34.505Z,-1.30
2018-01-14T17:20:03.164Z,-1.30
2018-01-14T17:22:31.825Z,-1.30
2018-01-14T17:25:00.498Z,-1.40
2018-01-14T17:27:29.206Z,-1.30
2018-01-14T17:29:58.129Z,-1.40
2018-01-14T17:32:26.801Z,-1.40
2018-01-14T17:34:56.217Z,-1.40
2018-01-14T17:37:24.861Z,-1.40
2018-01-14T17:39:53.549Z,-1.40
2018-01-14T17:42:22.217Z,-1.40
2018-01-14T17:44:50.904Z,-1.40
2018-01-14T17:47:19.601Z,-1.40
2018-01-14T17:49:48.260Z,-1.40
2018-01-14T17:52:17.141Z,-1.40
2018-01-14T17:54:45.819Z,-1.40
2018-01-14T17:57:14.474Z,-1.40
2018-01-14T17:59:43.137Z,-1.40
2018-01-14T18:02:11.855Z,-1.40
2018-01-14T18:04:41.281Z,-1.40
2018-01-14T18:07:09.929Z,-1.40
2018-01-14T18:09:38.285Z,-1.50
2018-01-14T18:12:06.953Z,-1.50
2018-01-14T18:14:35.600Z,-1.50
2018-01-14T18:17:25.587Z,-1.50
2018-01-14T18:19:55.612Z,-1.50
2018-01-14T18:22:24.464Z,-1.50
2018-01-14T18:24:53.426Z,-1.50
2018-01-14T18:27:22.096Z,-1.60
2018-01-14T18:29:50.754Z,-1.60
2018-01-14T18:32:20.211Z,-1.60
2018-01-14T18:34:48.854Z,-1.60
2018-01-14T18:37:18.275Z,-1.50
2018-01-14T18:39:46.984Z,-1.60
2018-01-14T18:42:15.633Z,-1.50
2018-01-14T18:44:44.280Z,-1.50
2018-01-14T18:47:12.948Z,-1.60
2018-01-14T18:49:41.601Z,-1.60
2018-01-14T18:52:11.085Z,-1.60
2018-01-14T18:54:40.570Z,-1.70
2018-01-14T18:57:09.232Z,-1.70
2018-01-14T18:59:37.941Z,-1.70
2018-01-14T19:02:06.626Z,-1.70
2018-01-14T19:04:35.289Z,-1.70
2018-01-14T19:07:03.945Z,-1.70
2018-01-14T19:09:33.383Z,-1.60
2018-01-14T19:12:02.041Z,-1.60
2018-01-14T19:14:30.745Z,-1.60
2018-01-14T19:16:59.424Z,-1.60
2018-01-14T19:19:28.081Z,-1.70
2018-01-14T19:21:57.767Z,-1.70
2018-01-14T19:24:26.467Z,-1.70
2018-01-14T19:26:55.168Z,-1.70
2018-01-14T19:29:24.681Z,-1.60
2018-01-14T19:31:54.166Z,-1.60
2018-01-14T19:34:24.175Z,-1.60
2018-01-14T19:36:52.865Z,-1.60
2018-01-14T19:39:21.547Z,-1.60
2018-01-14T19:41:50.408Z,-1.60
2018-01-14T19:44:28.562Z,-1.60
2018-01-14T19:46:57.473Z,-1.70
2018-01-14T19:49:26.245Z,-1.70
2018-01-14T19:51:55.743Z,-1.70
2018-01-14T19:54:24.574Z,-1.70
2018-01-14T19:56:55.849Z,-1.70
2018-01-14T19:59:26.250Z,-1.70
2018-01-14T20:01:55.001Z,-1.70
2018-01-14T20:04:24.554Z,-1.60
2018-01-14T20:06:53.230Z,-1.60
2018-01-14T20:09:21.978Z,-1.60
2018-01-14T20:11:50.738Z,-1.70
2018-01-14T20:14:19.434Z,-1.70
2018-01-14T20:16:48.274Z,-1.80
2018-01-14T20:19:16.974Z,-1.80
2018-01-14T20:21:45.647Z,-1.70
2018-01-14T20:24:14.767Z,-1.70
2018-01-14T20:26:43.478Z,-1.70
2018-01-14T20:29:12.170Z,-1.70
2018-01-14T20:31:40.873Z,-1.70
2018-01-14T20:34:09.591Z,-1.70
2018-01-14T20:36:39.037Z,-1.70
2018-01-14T20:39:07.701Z,-1.70
2018-01-14T20:41:36.398Z,-1.70
2018-01-14T20:44:04.936Z,-1.70
2018-01-14T20:46:33.616Z,-1.60
2018-01-14T20:49:02.287Z,-1.70
2018-01-14T20:51:31.002Z,-1.70
2018-01-14T20:53:59.714Z,-1.60
2018-01-14T20:56:28.430Z,-1.60
2018-01-14T20:58:58.111Z,-1.60
2018-01-14T21:01:26.805Z,-1.60
2018-01-14T21:03:55.566Z,-1.60
2018-01-14T21:06:24.379Z,-1.70
2018-01-14T21:08:53.055Z,-1.70
2018-01-14T21:11:22.531Z,-1.70
2018-01-14T21:13:51.465Z,-1.70
2018-01-14T21:16:20.158Z,-1.70
2018-01-14T21:18:48.822Z,-1.70
2018-01-14T21:21:18.411Z,-1.80
2018-01-14T21:23:47.195Z,-1.80
2018-01-14T21:26:15.878Z,-1.90
2018-01-14T21:28:44.580Z,-2.00
2018-01-14T21:31:13.306Z,-1.90
2018-01-14T21:33:42.005Z,-1.90
2018-01-14T21:36:11.652Z,-2.00
2018-01-14T21:38:40.658Z,-2.00
2018-01-14T21:41:10.389Z,-2.00
2018-01-14T21:43:39.517Z,-2.00
2018-01-14T21:46:08.401Z,-2.00
2018-01-14T21:48:39.940Z,-1.90
2018-01-14T21:51:11.007Z,-2.00
2018-01-14T21:53:41.091Z,-2.00
2018-01-14T21:56:12.629Z,-2.00
2018-01-14T21:58:43.320Z,-2.00
2018-01-14T22:01:13.982Z,-1.90
2018-01-14T22:03:45.156Z,-2.00
2018-01-14T22:06:14.886Z,-2.00
2018-01-14T22:08:46.327Z,-2.00
2018-01-14T22:11:17.922Z,-2.00
2018-01-14T22:13:48.913Z,-2.00
2018-01-14T22:16:18.485Z,-2.00
2018-01-14T22:18:48.077Z,-2.00
2018-01-14T22:21:17.570Z,-2.00
2018-01-14T22:23:49.104Z,-1.90
2018-01-14T22:26:18.789Z,-2.00
2018-01-14T22:28:47.564Z,-2.00
2018-01-14T22:31:16.465Z,-2.10
2018-01-14T22:33:45.177Z,-2.10
2018-01-14T22:36:14.650Z,-2.10
2018-01-14T22:38:43.364Z,-2.10
2018-01-14T22:41:12.817Z,-2.10
2018-01-14T22:43:41.763Z,-2.10
2018-01-14T22:46:11.233Z,-2.10
2018-01-14T22:48:39.917Z,-2.10
2018-01-14T22:51:08.905Z,-2.10
2018-01-14T22:53:40.147Z,-2.00
2018-01-14T22:56:09.053Z,-2.00
2018-01-14T22:58:37.778Z,-2.10
2018-01-14T23:01:07.880Z,-2.10
2018-01-14T23:03:36.718Z,-2.10
2018-01-14T23:06:05.692Z,-2.10
2018-01-14T23:08:36.205Z,-2.10
2018-01-14T23:11:07.178Z,-2.20
2018-01-14T23:13:35.862Z,-2.20
2018-01-14T23:16:04.549Z,-2.20
2018-01-14T23:18:35.371Z,-2.20
2018-01-14T23:21:04.113Z,-2.20
2018-01-14T23:23:32.810Z,-2.20
2018-01-14T23:26:01.761Z,-2.10
2018-01-14T23:28:30.465Z,-2.10
2018-01-14T23:30:59.153Z,-2.10
2018-01-14T23:33:28.002Z,-2.10
2018-01-14T23:35:57.698Z,-2.20
2018-01-14T23:38:26.396Z,-2.30
2018-01-14T23:40:55.931Z,-2.20
2018-01-14T23:43:26.397Z,-2.20
2018-01-14T23:45:55.414Z,-2.20
2018-01-14T23:48:24.149Z,-2.20
2018-01-14T23:50:52.853Z,-2.20
2018-01-14T23:53:21.522Z,-2.20
2018-01-14T23:55:50.221Z,-2.20
2018-01-14T23:58:18.890Z,-2.20
